sensor_id;sensor_type;location;lat;lon;timestamp;P1;durP1;ratioP1;P2;durP2;ratioP2
73699;SDS011;62005;50.082;8.988;2023-07-20T00:02:14;3.40;;;0.52;;
73699;SDS011;62005;50.082;8.988;2023-07-20T00:04:40;1.33;;;0.20;;
73699;SDS011;62005;50.082;8.988;2023-07-20T00:07:05;2.03;;;0.23;;
73699;SDS011;62005;50.082;8.988;2023-07-20T00:09:30;2.10;;;0.20;;
73699;SDS011;62005;50.082;8.988;2023-07-20T00:11:56;2.08;;;0.30;;
73699;SDS011;62005;50.082;8.988;2023-07-20T00:14:21;1.25;;;0.15;;
73699;SDS011;62005;50.082;8.988;2023-07-20T00:16:47;1.25;;;0.20;;
73699;SDS011;62005;50.082;8.988;2023-07-20T00:19:21;3.25;;;0.43;;
73699;SDS011;62005;50.082;8.988;2023-07-20T00:21:50;2.30;;;0.30;;
73699;SDS011;62005;50.082;8.988;2023-07-20T00:24:15;1.90;;;0.20;;
73699;SDS011;62005;50.082;8.988;2023-07-20T00:26:40;2.23;;;0.30;;
73699;SDS011;62005;50.082;8.988;2023-07-20T00:29:06;2.20;;;0.40;;
73699;SDS011;62005;50.082;8.988;2023-07-20T00:31:31;1.87;;;0.50;;
73699;SDS011;62005;50.082;8.988;2023-07-20T00:33:56;0.98;;;0.22;;
73699;SDS011;62005;50.082;8.988;2023-07-20T00:36:22;2.13;;;0.30;;
73699;SDS011;62005;50.082;8.988;2023-07-20T00:38:47;1.23;;;0.20;;
73699;SDS011;62005;50.082;8.988;2023-07-20T00:41:12;2.43;;;0.40;;
73699;SDS011;62005;50.082;8.988;2023-07-20T00:43:38;2.20;;;0.30;;
73699;SDS011;62005;50.082;8.988;2023-07-20T00:46:03;2.38;;;0.32;;
73699;SDS011;62005;50.082;8.988;2023-07-20T00:48:30;2.20;;;0.28;;
73699;SDS011;62005;50.082;8.988;2023-07-20T00:50:57;2.00;;;0.22;;
73699;SDS011;62005;50.082;8.988;2023-07-20T00:53:24;3.95;;;0.35;;
73699;SDS011;62005;50.082;8.988;2023-07-20T00:55:50;2.05;;;0.40;;
73699;SDS011;62005;50.082;8.988;2023-07-20T00:58:15;2.22;;;0.30;;
73699;SDS011;62005;50.082;8.988;2023-07-20T01:00:41;2.97;;;0.25;;
73699;SDS011;62005;50.082;8.988;2023-07-20T01:03:06;1.90;;;0.28;;
73699;SDS011;62005;50.082;8.988;2023-07-20T01:05:51;3.17;;;0.70;;
73699;SDS011;62005;50.082;8.988;2023-07-20T01:08:27;1.63;;;0.20;;
73699;SDS011;62005;50.082;8.988;2023-07-20T01:11:05;3.28;;;0.43;;
73699;SDS011;62005;50.082;8.988;2023-07-20T01:13:35;1.58;;;0.30;;
73699;SDS011;62005;50.082;8.988;2023-07-20T01:16:02;2.17;;;0.40;;
73699;SDS011;62005;50.082;8.988;2023-07-20T01:18:28;2.95;;;0.38;;
73699;SDS011;62005;50.082;8.988;2023-07-20T01:20:59;4.32;;;0.40;;
73699;SDS011;62005;50.082;8.988;2023-07-20T01:33:36;3.17;;;0.47;;
73699;SDS011;62005;50.082;8.988;2023-07-20T01:36:03;1.63;;;0.50;;
73699;SDS011;62005;50.082;8.988;2023-07-20T01:38:30;2.47;;;0.30;;
73699;SDS011;62005;50.082;8.988;2023-07-20T01:40:56;3.28;;;0.47;;
73699;SDS011;62005;50.082;8.988;2023-07-20T01:43:23;2.83;;;0.40;;
73699;SDS011;62005;50.082;8.988;2023-07-20T01:45:48;2.95;;;0.50;;
73699;SDS011;62005;50.082;8.988;2023-07-20T01:48:13;4.47;;;0.70;;
73699;SDS011;62005;50.082;8.988;2023-07-20T01:50:39;2.00;;;0.30;;
73699;SDS011;62005;50.082;8.988;2023-07-20T01:53:04;2.17;;;0.23;;
73699;SDS011;62005;50.082;8.988;2023-07-20T01:55:29;7.37;;;0.80;;
73699;SDS011;62005;50.082;8.988;2023-07-20T01:57:55;5.43;;;0.60;;
73699;SDS011;62005;50.082;8.988;2023-07-20T02:00:21;2.28;;;0.32;;
73699;SDS011;62005;50.082;8.988;2023-07-20T02:02:49;3.20;;;0.30;;
73699;SDS011;62005;50.082;8.988;2023-07-20T02:05:15;2.45;;;0.40;;
73699;SDS011;62005;50.082;8.988;2023-07-20T02:07:40;4.05;;;0.47;;
73699;SDS011;62005;50.082;8.988;2023-07-20T02:10:06;2.13;;;0.30;;
73699;SDS011;62005;50.082;8.988;2023-07-20T02:12:32;3.05;;;0.40;;
73699;SDS011;62005;50.082;8.988;2023-07-20T02:14:57;1.80;;;0.33;;
73699;SDS011;62005;50.082;8.988;2023-07-20T02:17:22;3.93;;;0.50;;
73699;SDS011;62005;50.082;8.988;2023-07-20T02:19:50;3.23;;;0.47;;
73699;SDS011;62005;50.082;8.988;2023-07-20T02:22:19;2.35;;;0.60;;
73699;SDS011;62005;50.082;8.988;2023-07-20T02:24:45;2.58;;;0.28;;
73699;SDS011;62005;50.082;8.988;2023-07-20T02:27:11;2.43;;;0.37;;
73699;SDS011;62005;50.082;8.988;2023-07-20T02:29:36;2.13;;;0.40;;
73699;SDS011;62005;50.082;8.988;2023-07-20T02:32:02;3.42;;;0.85;;
73699;SDS011;62005;50.082;8.988;2023-07-20T02:34:28;3.15;;;0.32;;
73699;SDS011;62005;50.082;8.988;2023-07-20T02:36:53;3.73;;;0.40;;
73699;SDS011;62005;50.082;8.988;2023-07-20T02:39:21;4.00;;;0.70;;
73699;SDS011;62005;50.082;8.988;2023-07-20T02:41:47;3.22;;;0.30;;
73699;SDS011;62005;50.082;8.988;2023-07-20T02:44:13;4.45;;;0.60;;
73699;SDS011;62005;50.082;8.988;2023-07-20T02:46:39;2.15;;;0.60;;
73699;SDS011;62005;50.082;8.988;2023-07-20T02:49:04;3.97;;;0.50;;
73699;SDS011;62005;50.082;8.988;2023-07-20T02:51:30;1.60;;;0.40;;
73699;SDS011;62005;50.082;8.988;2023-07-20T02:53:55;5.30;;;0.50;;
73699;SDS011;62005;50.082;8.988;2023-07-20T02:56:20;2.30;;;0.40;;
73699;SDS011;62005;50.082;8.988;2023-07-20T02:58:47;2.92;;;0.52;;
73699;SDS011;62005;50.082;8.988;2023-07-20T03:01:13;4.20;;;0.80;;
73699;SDS011;62005;50.082;8.988;2023-07-20T03:06:05;1.90;;;0.30;;
73699;SDS011;62005;50.082;8.988;2023-07-20T03:08:30;2.90;;;0.40;;
73699;SDS011;62005;50.082;8.988;2023-07-20T03:10:56;3.90;;;0.50;;
73699;SDS011;62005;50.082;8.988;2023-07-20T03:13:21;1.60;;;0.50;;
73699;SDS011;62005;50.082;8.988;2023-07-20T03:15:47;2.30;;;0.63;;
73699;SDS011;62005;50.082;8.988;2023-07-20T03:18:12;2.80;;;0.97;;
73699;SDS011;62005;50.082;8.988;2023-07-20T03:20:38;3.47;;;0.50;;
73699;SDS011;62005;50.082;8.988;2023-07-20T03:23:03;3.38;;;0.68;;
73699;SDS011;62005;50.082;8.988;2023-07-20T03:25:29;2.55;;;0.60;;
73699;SDS011;62005;50.082;8.988;2023-07-20T03:27:54;1.90;;;0.50;;
73699;SDS011;62005;50.082;8.988;2023-07-20T03:30:19;3.72;;;0.60;;
73699;SDS011;62005;50.082;8.988;2023-07-20T03:32:45;6.93;;;0.87;;
73699;SDS011;62005;50.082;8.988;2023-07-20T03:35:10;3.40;;;0.70;;
73699;SDS011;62005;50.082;8.988;2023-07-20T03:37:35;4.00;;;0.70;;
73699;SDS011;62005;50.082;8.988;2023-07-20T03:40:02;3.08;;;0.73;;
73699;SDS011;62005;50.082;8.988;2023-07-20T03:42:28;4.55;;;1.20;;
73699;SDS011;62005;50.082;8.988;2023-07-20T03:44:53;6.47;;;1.40;;
73699;SDS011;62005;50.082;8.988;2023-07-20T03:47:18;4.03;;;0.60;;
73699;SDS011;62005;50.082;8.988;2023-07-20T03:49:44;1.85;;;0.40;;
73699;SDS011;62005;50.082;8.988;2023-07-20T03:52:09;5.97;;;1.17;;
73699;SDS011;62005;50.082;8.988;2023-07-20T03:54:34;3.27;;;0.70;;
73699;SDS011;62005;50.082;8.988;2023-07-20T03:57:00;2.43;;;0.70;;
73699;SDS011;62005;50.082;8.988;2023-07-20T03:59:26;2.25;;;0.63;;
73699;SDS011;62005;50.082;8.988;2023-07-20T04:01:51;2.88;;;0.65;;
73699;SDS011;62005;50.082;8.988;2023-07-20T04:04:17;2.10;;;0.50;;
73699;SDS011;62005;50.082;8.988;2023-07-20T04:06:42;2.47;;;0.47;;
73699;SDS011;62005;50.082;8.988;2023-07-20T04:09:11;7.07;;;0.57;;
73699;SDS011;62005;50.082;8.988;2023-07-20T04:11:37;4.50;;;0.88;;
73699;SDS011;62005;50.082;8.988;2023-07-20T04:14:03;2.63;;;0.55;;
73699;SDS011;62005;50.082;8.988;2023-07-20T04:16:28;4.13;;;0.60;;
73699;SDS011;62005;50.082;8.988;2023-07-20T04:18:57;3.70;;;0.93;;
73699;SDS011;62005;50.082;8.988;2023-07-20T04:21:23;3.83;;;0.70;;
73699;SDS011;62005;50.082;8.988;2023-07-20T04:23:48;3.17;;;0.90;;
73699;SDS011;62005;50.082;8.988;2023-07-20T04:26:14;2.97;;;0.70;;
73699;SDS011;62005;50.082;8.988;2023-07-20T04:28:39;5.72;;;0.90;;
73699;SDS011;62005;50.082;8.988;2023-07-20T04:31:10;4.63;;;0.75;;
73699;SDS011;62005;50.082;8.988;2023-07-20T04:33:39;4.35;;;1.35;;
73699;SDS011;62005;50.082;8.988;2023-07-20T04:36:05;6.75;;;0.90;;
73699;SDS011;62005;50.082;8.988;2023-07-20T04:38:31;2.65;;;0.75;;
73699;SDS011;62005;50.082;8.988;2023-07-20T04:40:56;3.08;;;0.70;;
73699;SDS011;62005;50.082;8.988;2023-07-20T04:43:22;4.50;;;0.70;;
73699;SDS011;62005;50.082;8.988;2023-07-20T04:45:47;1.92;;;0.68;;
73699;SDS011;62005;50.082;8.988;2023-07-20T04:48:14;1.95;;;0.47;;
73699;SDS011;62005;50.082;8.988;2023-07-20T04:50:41;3.95;;;0.47;;
73699;SDS011;62005;50.082;8.988;2023-07-20T04:53:08;6.40;;;0.70;;
73699;SDS011;62005;50.082;8.988;2023-07-20T04:55:35;5.07;;;0.73;;
73699;SDS011;62005;50.082;8.988;2023-07-20T05:00:27;2.38;;;0.52;;
73699;SDS011;62005;50.082;8.988;2023-07-20T05:02:52;2.15;;;0.80;;
73699;SDS011;62005;50.082;8.988;2023-07-20T05:05:18;1.83;;;0.60;;
73699;SDS011;62005;50.082;8.988;2023-07-20T05:07:43;3.65;;;0.50;;
73699;SDS011;62005;50.082;8.988;2023-07-20T05:10:09;4.20;;;0.57;;
73699;SDS011;62005;50.082;8.988;2023-07-20T05:12:35;3.03;;;0.77;;
73699;SDS011;62005;50.082;8.988;2023-07-20T05:15:00;3.67;;;0.70;;
73699;SDS011;62005;50.082;8.988;2023-07-20T05:17:25;3.10;;;0.67;;
73699;SDS011;62005;50.082;8.988;2023-07-20T05:19:51;2.67;;;0.60;;
73699;SDS011;62005;50.082;8.988;2023-07-20T05:22:16;4.72;;;0.75;;
73699;SDS011;62005;50.082;8.988;2023-07-20T05:24:41;2.75;;;0.32;;
73699;SDS011;62005;50.082;8.988;2023-07-20T05:27:07;1.70;;;0.40;;
73699;SDS011;62005;50.082;8.988;2023-07-20T05:29:32;2.33;;;0.60;;
73699;SDS011;62005;50.082;8.988;2023-07-20T05:31:58;3.60;;;0.47;;
73699;SDS011;62005;50.082;8.988;2023-07-20T05:34:23;3.33;;;0.52;;
73699;SDS011;62005;50.082;8.988;2023-07-20T05:39:33;5.55;;;0.73;;
73699;SDS011;62005;50.082;8.988;2023-07-20T05:41:58;1.88;;;0.40;;
73699;SDS011;62005;50.082;8.988;2023-07-20T05:44:24;8.67;;;2.90;;
73699;SDS011;62005;50.082;8.988;2023-07-20T05:46:49;5.67;;;1.83;;
73699;SDS011;62005;50.082;8.988;2023-07-20T05:49:14;6.37;;;1.10;;
73699;SDS011;62005;50.082;8.988;2023-07-20T05:51:39;3.67;;;0.57;;
73699;SDS011;62005;50.082;8.988;2023-07-20T05:54:05;4.43;;;0.40;;
73699;SDS011;62005;50.082;8.988;2023-07-20T05:56:30;2.23;;;0.43;;
73699;SDS011;62005;50.082;8.988;2023-07-20T05:58:56;3.95;;;0.85;;
73699;SDS011;62005;50.082;8.988;2023-07-20T06:01:21;3.10;;;0.40;;
73699;SDS011;62005;50.082;8.988;2023-07-20T06:03:46;2.97;;;0.40;;
73699;SDS011;62005;50.082;8.988;2023-07-20T06:06:12;4.03;;;0.40;;
73699;SDS011;62005;50.082;8.988;2023-07-20T06:08:37;2.72;;;0.35;;
73699;SDS011;62005;50.082;8.988;2023-07-20T06:11:03;3.85;;;0.40;;
73699;SDS011;62005;50.082;8.988;2023-07-20T06:13:29;3.33;;;0.50;;
73699;SDS011;62005;50.082;8.988;2023-07-20T06:15:54;4.03;;;0.43;;
73699;SDS011;62005;50.082;8.988;2023-07-20T06:18:20;3.45;;;0.47;;
73699;SDS011;62005;50.082;8.988;2023-07-20T06:20:48;3.97;;;0.52;;
73699;SDS011;62005;50.082;8.988;2023-07-20T06:23:18;4.70;;;0.30;;
73699;SDS011;62005;50.082;8.988;2023-07-20T06:25:44;3.67;;;0.50;;
73699;SDS011;62005;50.082;8.988;2023-07-20T06:28:09;3.58;;;0.30;;
73699;SDS011;62005;50.082;8.988;2023-07-20T06:30:34;2.80;;;0.40;;
73699;SDS011;62005;50.082;8.988;2023-07-20T06:33:00;1.90;;;0.22;;
73699;SDS011;62005;50.082;8.988;2023-07-20T06:35:25;3.88;;;0.43;;
73699;SDS011;62005;50.082;8.988;2023-07-20T06:37:51;4.72;;;0.52;;
73699;SDS011;62005;50.082;8.988;2023-07-20T06:40:16;2.65;;;0.50;;
73699;SDS011;62005;50.082;8.988;2023-07-20T06:42:42;2.30;;;0.20;;
73699;SDS011;62005;50.082;8.988;2023-07-20T06:45:08;2.00;;;0.30;;
73699;SDS011;62005;50.082;8.988;2023-07-20T06:47:34;4.82;;;0.35;;
73699;SDS011;62005;50.082;8.988;2023-07-20T06:49:59;4.00;;;0.25;;
73699;SDS011;62005;50.082;8.988;2023-07-20T06:52:25;4.27;;;0.20;;
73699;SDS011;62005;50.082;8.988;2023-07-20T06:54:50;3.00;;;0.13;;
73699;SDS011;62005;50.082;8.988;2023-07-20T06:57:16;2.28;;;0.22;;
73699;SDS011;62005;50.082;8.988;2023-07-20T06:59:41;2.17;;;0.20;;
73699;SDS011;62005;50.082;8.988;2023-07-20T07:02:07;2.05;;;0.60;;
73699;SDS011;62005;50.082;8.988;2023-07-20T07:04:33;3.35;;;0.55;;
73699;SDS011;62005;50.082;8.988;2023-07-20T07:06:59;2.20;;;0.40;;
73699;SDS011;62005;50.082;8.988;2023-07-20T07:09:24;2.28;;;0.30;;
73699;SDS011;62005;50.082;8.988;2023-07-20T07:11:50;2.67;;;0.33;;
73699;SDS011;62005;50.082;8.988;2023-07-20T07:14:15;3.03;;;0.30;;
73699;SDS011;62005;50.082;8.988;2023-07-20T07:16:41;2.97;;;0.30;;
73699;SDS011;62005;50.082;8.988;2023-07-20T07:19:06;2.03;;;0.38;;
73699;SDS011;62005;50.082;8.988;2023-07-20T07:21:32;1.75;;;0.30;;
73699;SDS011;62005;50.082;8.988;2023-07-20T07:23:57;3.03;;;0.30;;
73699;SDS011;62005;50.082;8.988;2023-07-20T07:26:24;4.30;;;0.30;;
73699;SDS011;62005;50.082;8.988;2023-07-20T07:28:50;2.60;;;0.45;;
73699;SDS011;62005;50.082;8.988;2023-07-20T07:31:15;4.38;;;0.43;;
73699;SDS011;62005;50.082;8.988;2023-07-20T07:33:41;3.75;;;0.32;;
73699;SDS011;62005;50.082;8.988;2023-07-20T07:36:06;1.55;;;0.22;;
73699;SDS011;62005;50.082;8.988;2023-07-20T07:38:32;5.80;;;0.50;;
73699;SDS011;62005;50.082;8.988;2023-07-20T07:40:58;2.17;;;0.22;;
73699;SDS011;62005;50.082;8.988;2023-07-20T07:43:23;1.60;;;0.25;;
73699;SDS011;62005;50.082;8.988;2023-07-20T07:45:49;3.17;;;0.30;;
73699;SDS011;62005;50.082;8.988;2023-07-20T07:48:14;3.10;;;0.38;;
73699;SDS011;62005;50.082;8.988;2023-07-20T07:50:40;3.00;;;0.40;;
73699;SDS011;62005;50.082;8.988;2023-07-20T07:53:05;2.97;;;0.30;;
73699;SDS011;62005;50.082;8.988;2023-07-20T07:55:32;2.72;;;0.52;;
73699;SDS011;62005;50.082;8.988;2023-07-20T07:57:57;1.85;;;0.30;;
73699;SDS011;62005;50.082;8.988;2023-07-20T08:00:23;3.20;;;0.20;;
73699;SDS011;62005;50.082;8.988;2023-07-20T08:02:49;2.47;;;0.20;;
73699;SDS011;62005;50.082;8.988;2023-07-20T08:05:15;1.65;;;0.22;;
73699;SDS011;62005;50.082;8.988;2023-07-20T08:07:40;2.17;;;0.30;;
73699;SDS011;62005;50.082;8.988;2023-07-20T08:10:06;6.07;;;0.30;;
73699;SDS011;62005;50.082;8.988;2023-07-20T08:12:32;3.20;;;0.28;;
73699;SDS011;62005;50.082;8.988;2023-07-20T08:14:58;1.42;;;0.30;;
73699;SDS011;62005;50.082;8.988;2023-07-20T08:17:23;2.58;;;0.30;;
73699;SDS011;62005;50.082;8.988;2023-07-20T08:19:49;3.30;;;0.15;;
73699;SDS011;62005;50.082;8.988;2023-07-20T08:22:14;2.93;;;0.13;;
73699;SDS011;62005;50.082;8.988;2023-07-20T08:24:40;1.50;;;0.28;;
73699;SDS011;62005;50.082;8.988;2023-07-20T08:29:33;1.98;;;0.30;;
73699;SDS011;62005;50.082;8.988;2023-07-20T08:31:59;1.88;;;0.80;;
73699;SDS011;62005;50.082;8.988;2023-07-20T08:34:24;2.23;;;0.20;;
73699;SDS011;62005;50.082;8.988;2023-07-20T08:36:51;2.75;;;0.30;;
73699;SDS011;62005;50.082;8.988;2023-07-20T08:39:16;2.37;;;0.10;;
73699;SDS011;62005;50.082;8.988;2023-07-20T08:41:42;2.63;;;0.20;;
73699;SDS011;62005;50.082;8.988;2023-07-20T08:44:08;2.00;;;0.30;;
73699;SDS011;62005;50.082;8.988;2023-07-20T08:49:00;2.90;;;0.15;;
73699;SDS011;62005;50.082;8.988;2023-07-20T08:51:27;1.15;;;0.15;;
73699;SDS011;62005;50.082;8.988;2023-07-20T08:53:54;3.17;;;0.20;;
73699;SDS011;62005;50.082;8.988;2023-07-20T08:56:19;1.20;;;0.20;;
73699;SDS011;62005;50.082;8.988;2023-07-20T08:58:46;1.75;;;0.25;;
73699;SDS011;62005;50.082;8.988;2023-07-20T09:01:12;1.60;;;0.20;;
73699;SDS011;62005;50.082;8.988;2023-07-20T09:03:38;1.73;;;0.30;;
73699;SDS011;62005;50.082;8.988;2023-07-20T09:06:04;0.82;;;0.10;;
73699;SDS011;62005;50.082;8.988;2023-07-20T09:08:30;2.15;;;0.20;;
73699;SDS011;62005;50.082;8.988;2023-07-20T09:10:56;1.52;;;0.10;;
73699;SDS011;62005;50.082;8.988;2023-07-20T09:13:22;2.20;;;0.20;;
73699;SDS011;62005;50.082;8.988;2023-07-20T09:15:53;1.92;;;0.20;;
73699;SDS011;62005;50.082;8.988;2023-07-20T09:18:28;2.05;;;0.20;;
73699;SDS011;62005;50.082;8.988;2023-07-20T09:21:02;1.25;;;0.20;;
73699;SDS011;62005;50.082;8.988;2023-07-20T09:23:33;1.25;;;0.30;;
73699;SDS011;62005;50.082;8.988;2023-07-20T09:26:00;1.95;;;0.25;;
73699;SDS011;62005;50.082;8.988;2023-07-20T09:30:52;0.93;;;0.20;;
73699;SDS011;62005;50.082;8.988;2023-07-20T09:33:22;2.15;;;0.10;;
73699;SDS011;62005;50.082;8.988;2023-07-20T09:35:47;2.13;;;0.20;;
73699;SDS011;62005;50.082;8.988;2023-07-20T09:38:13;1.50;;;0.17;;
73699;SDS011;62005;50.082;8.988;2023-07-20T09:40:40;2.00;;;0.25;;
73699;SDS011;62005;50.082;8.988;2023-07-20T09:43:08;2.50;;;0.43;;
73699;SDS011;62005;50.082;8.988;2023-07-20T09:45:39;1.75;;;0.30;;
73699;SDS011;62005;50.082;8.988;2023-07-20T09:48:09;1.63;;;0.10;;
73699;SDS011;62005;50.082;8.988;2023-07-20T09:50:42;4.05;;;0.20;;
73699;SDS011;62005;50.082;8.988;2023-07-20T09:53:17;2.40;;;0.65;;
73699;SDS011;62005;50.082;8.988;2023-07-20T09:55:45;1.10;;;0.10;;
73699;SDS011;62005;50.082;8.988;2023-07-20T09:58:12;1.58;;;0.20;;
73699;SDS011;62005;50.082;8.988;2023-07-20T10:00:38;1.50;;;0.10;;
73699;SDS011;62005;50.082;8.988;2023-07-20T10:03:05;2.67;;;0.20;;
73699;SDS011;62005;50.082;8.988;2023-07-20T10:05:35;2.33;;;0.20;;
73699;SDS011;62005;50.082;8.988;2023-07-20T10:08:04;3.50;;;0.20;;
73699;SDS011;62005;50.082;8.988;2023-07-20T10:10:35;5.30;;;0.30;;
73699;SDS011;62005;50.082;8.988;2023-07-20T10:13:02;1.42;;;0.20;;
73699;SDS011;62005;50.082;8.988;2023-07-20T10:20:39;3.30;;;0.73;;
73699;SDS011;62005;50.082;8.988;2023-07-20T10:23:06;1.00;;;0.17;;
73699;SDS011;62005;50.082;8.988;2023-07-20T10:25:32;3.42;;;0.22;;
73699;SDS011;62005;50.082;8.988;2023-07-20T10:28:02;1.27;;;0.25;;
73699;SDS011;62005;50.082;8.988;2023-07-20T10:30:34;1.27;;;0.22;;
73699;SDS011;62005;50.082;8.988;2023-07-20T10:33:01;2.17;;;0.15;;
73699;SDS011;62005;50.082;8.988;2023-07-20T10:35:28;2.10;;;0.15;;
73699;SDS011;62005;50.082;8.988;2023-07-20T10:37:54;2.20;;;0.20;;
73699;SDS011;62005;50.082;8.988;2023-07-20T10:43:09;2.90;;;0.35;;
73699;SDS011;62005;50.082;8.988;2023-07-20T10:48:03;4.15;;;0.32;;
73699;SDS011;62005;50.082;8.988;2023-07-20T10:50:30;3.15;;;0.22;;
73699;SDS011;62005;50.082;8.988;2023-07-20T10:53:04;1.27;;;0.10;;
73699;SDS011;62005;50.082;8.988;2023-07-20T10:55:49;1.70;;;0.22;;
73699;SDS011;62005;50.082;8.988;2023-07-20T10:58:44;1.20;;;0.20;;
73699;SDS011;62005;50.082;8.988;2023-07-20T11:01:10;1.23;;;0.28;;
73699;SDS011;62005;50.082;8.988;2023-07-20T11:03:39;1.55;;;0.20;;
73699;SDS011;62005;50.082;8.988;2023-07-20T11:08:49;2.58;;;0.30;;
73699;SDS011;62005;50.082;8.988;2023-07-20T11:11:29;1.45;;;0.20;;
73699;SDS011;62005;50.082;8.988;2023-07-20T11:13:56;2.42;;;0.15;;
73699;SDS011;62005;50.082;8.988;2023-07-20T11:19:17;1.70;;;0.25;;
73699;SDS011;62005;50.082;8.988;2023-07-20T11:21:53;1.85;;;0.13;;
73699;SDS011;62005;50.082;8.988;2023-07-20T11:24:23;0.82;;;0.17;;
73699;SDS011;62005;50.082;8.988;2023-07-20T11:26:49;1.42;;;0.30;;
73699;SDS011;62005;50.082;8.988;2023-07-20T11:29:16;2.42;;;0.22;;
73699;SDS011;62005;50.082;8.988;2023-07-20T11:31:43;2.30;;;0.20;;
73699;SDS011;62005;50.082;8.988;2023-07-20T11:34:11;1.63;;;0.20;;
73699;SDS011;62005;50.082;8.988;2023-07-20T11:36:40;0.85;;;0.10;;
73699;SDS011;62005;50.082;8.988;2023-07-20T11:39:10;0.98;;;0.17;;
73699;SDS011;62005;50.082;8.988;2023-07-20T11:41:37;1.98;;;0.20;;
73699;SDS011;62005;50.082;8.988;2023-07-20T11:44:03;1.83;;;0.20;;
73699;SDS011;62005;50.082;8.988;2023-07-20T11:46:29;1.23;;;0.20;;
73699;SDS011;62005;50.082;8.988;2023-07-20T11:48:58;1.48;;;0.10;;
73699;SDS011;62005;50.082;8.988;2023-07-20T11:51:30;1.85;;;0.10;;
73699;SDS011;62005;50.082;8.988;2023-07-20T11:53:56;1.70;;;0.20;;
73699;SDS011;62005;50.082;8.988;2023-07-20T11:56:22;2.20;;;0.35;;
73699;SDS011;62005;50.082;8.988;2023-07-20T11:58:49;2.75;;;0.20;;
73699;SDS011;62005;50.082;8.988;2023-07-20T12:01:15;4.65;;;0.20;;
73699;SDS011;62005;50.082;8.988;2023-07-20T12:03:42;1.52;;;0.20;;
73699;SDS011;62005;50.082;8.988;2023-07-20T12:06:08;2.42;;;0.20;;
73699;SDS011;62005;50.082;8.988;2023-07-20T12:08:35;1.63;;;0.20;;
73699;SDS011;62005;50.082;8.988;2023-07-20T12:11:04;1.40;;;0.10;;
73699;SDS011;62005;50.082;8.988;2023-07-20T12:13:42;1.00;;;0.20;;
73699;SDS011;62005;50.082;8.988;2023-07-20T12:16:14;2.13;;;0.22;;
73699;SDS011;62005;50.082;8.988;2023-07-20T12:18:41;2.05;;;0.25;;
73699;SDS011;62005;50.082;8.988;2023-07-20T12:21:07;3.38;;;0.30;;
73699;SDS011;62005;50.082;8.988;2023-07-20T12:23:37;5.22;;;0.20;;
73699;SDS011;62005;50.082;8.988;2023-07-20T12:26:07;0.90;;;0.10;;
73699;SDS011;62005;50.082;8.988;2023-07-20T12:28:40;2.97;;;0.30;;
73699;SDS011;62005;50.082;8.988;2023-07-20T12:31:08;4.35;;;0.28;;
73699;SDS011;62005;50.082;8.988;2023-07-20T12:33:35;1.15;;;0.25;;
73699;SDS011;62005;50.082;8.988;2023-07-20T12:36:01;2.33;;;0.10;;
73699;SDS011;62005;50.082;8.988;2023-07-20T12:38:27;2.17;;;0.20;;
73699;SDS011;62005;50.082;8.988;2023-07-20T12:41:00;0.70;;;0.10;;
73699;SDS011;62005;50.082;8.988;2023-07-20T12:43:26;1.38;;;0.10;;
73699;SDS011;62005;50.082;8.988;2023-07-20T12:45:52;1.08;;;0.10;;
73699;SDS011;62005;50.082;8.988;2023-07-20T12:48:17;1.77;;;0.10;;
73699;SDS011;62005;50.082;8.988;2023-07-20T12:50:43;2.60;;;0.30;;
73699;SDS011;62005;50.082;8.988;2023-07-20T12:53:08;4.50;;;0.50;;
73699;SDS011;62005;50.082;8.988;2023-07-20T12:55:33;0.80;;;0.13;;
73699;SDS011;62005;50.082;8.988;2023-07-20T12:57:59;1.45;;;0.13;;
73699;SDS011;62005;50.082;8.988;2023-07-20T13:00:24;0.93;;;0.10;;
73699;SDS011;62005;50.082;8.988;2023-07-20T13:02:52;2.20;;;0.20;;
73699;SDS011;62005;50.082;8.988;2023-07-20T13:05:17;1.38;;;0.10;;
73699;SDS011;62005;50.082;8.988;2023-07-20T13:07:43;1.05;;;0.15;;
73699;SDS011;62005;50.082;8.988;2023-07-20T13:10:09;2.25;;;0.10;;
73699;SDS011;62005;50.082;8.988;2023-07-20T13:12:36;1.30;;;0.20;;
73699;SDS011;62005;50.082;8.988;2023-07-20T13:15:02;2.58;;;0.10;;
73699;SDS011;62005;50.082;8.988;2023-07-20T13:17:30;1.38;;;0.20;;
73699;SDS011;62005;50.082;8.988;2023-07-20T13:20:00;1.27;;;0.13;;
73699;SDS011;62005;50.082;8.988;2023-07-20T13:22:26;1.77;;;0.10;;
73699;SDS011;62005;50.082;8.988;2023-07-20T13:24:52;2.28;;;0.20;;
73699;SDS011;62005;50.082;8.988;2023-07-20T13:27:18;1.67;;;0.10;;
73699;SDS011;62005;50.082;8.988;2023-07-20T13:32:09;1.67;;;0.17;;
73699;SDS011;62005;50.082;8.988;2023-07-20T13:34:35;1.15;;;0.13;;
73699;SDS011;62005;50.082;8.988;2023-07-20T13:37:01;1.23;;;0.10;;
73699;SDS011;62005;50.082;8.988;2023-07-20T13:41:53;0.85;;;0.10;;
73699;SDS011;62005;50.082;8.988;2023-07-20T13:44:19;0.95;;;0.10;;
73699;SDS011;62005;50.082;8.988;2023-07-20T13:49:11;1.08;;;0.10;;
73699;SDS011;62005;50.082;8.988;2023-07-20T13:51:36;0.90;;;0.10;;
73699;SDS011;62005;50.082;8.988;2023-07-20T13:54:01;1.80;;;0.20;;
73699;SDS011;62005;50.082;8.988;2023-07-20T13:56:27;2.58;;;0.10;;
73699;SDS011;62005;50.082;8.988;2023-07-20T13:58:52;3.43;;;0.10;;
73699;SDS011;62005;50.082;8.988;2023-07-20T14:01:17;1.77;;;0.03;;
73699;SDS011;62005;50.082;8.988;2023-07-20T14:03:43;1.00;;;0.10;;
73699;SDS011;62005;50.082;8.988;2023-07-20T14:06:08;2.08;;;0.10;;
73699;SDS011;62005;50.082;8.988;2023-07-20T14:08:34;1.38;;;0.10;;
73699;SDS011;62005;50.082;8.988;2023-07-20T14:10:59;1.63;;;0.10;;
73699;SDS011;62005;50.082;8.988;2023-07-20T14:13:25;0.50;;;0.00;;
73699;SDS011;62005;50.082;8.988;2023-07-20T14:15:50;1.60;;;0.10;;
73699;SDS011;62005;50.082;8.988;2023-07-20T14:18:16;0.50;;;0.10;;
73699;SDS011;62005;50.082;8.988;2023-07-20T14:20:41;1.02;;;0.10;;
73699;SDS011;62005;50.082;8.988;2023-07-20T14:23:07;0.85;;;0.20;;
73699;SDS011;62005;50.082;8.988;2023-07-20T14:25:32;1.73;;;0.10;;
73699;SDS011;62005;50.082;8.988;2023-07-20T14:27:58;0.68;;;0.10;;
73699;SDS011;62005;50.082;8.988;2023-07-20T14:30:24;2.30;;;0.13;;
73699;SDS011;62005;50.082;8.988;2023-07-20T14:32:50;2.58;;;0.10;;
73699;SDS011;62005;50.082;8.988;2023-07-20T14:35:15;1.07;;;0.10;;
73699;SDS011;62005;50.082;8.988;2023-07-20T14:37:40;0.47;;;0.00;;
73699;SDS011;62005;50.082;8.988;2023-07-20T14:40:06;2.83;;;0.30;;
73699;SDS011;62005;50.082;8.988;2023-07-20T14:42:32;0.95;;;0.10;;
73699;SDS011;62005;50.082;8.988;2023-07-20T14:44:57;0.65;;;0.00;;
73699;SDS011;62005;50.082;8.988;2023-07-20T14:47:23;0.55;;;0.10;;
73699;SDS011;62005;50.082;8.988;2023-07-20T14:49:48;0.82;;;0.10;;
73699;SDS011;62005;50.082;8.988;2023-07-20T14:52:14;3.28;;;0.10;;
73699;SDS011;62005;50.082;8.988;2023-07-20T14:54:39;1.53;;;0.13;;
73699;SDS011;62005;50.082;8.988;2023-07-20T14:57:04;5.88;;;0.13;;
73699;SDS011;62005;50.082;8.988;2023-07-20T14:59:32;3.22;;;0.10;;
73699;SDS011;62005;50.082;8.988;2023-07-20T15:01:57;2.97;;;0.22;;
73699;SDS011;62005;50.082;8.988;2023-07-20T15:04:23;1.03;;;0.10;;
73699;SDS011;62005;50.082;8.988;2023-07-20T15:06:48;0.93;;;0.10;;
73699;SDS011;62005;50.082;8.988;2023-07-20T15:09:13;1.55;;;0.15;;
73699;SDS011;62005;50.082;8.988;2023-07-20T15:11:39;1.77;;;0.10;;
73699;SDS011;62005;50.082;8.988;2023-07-20T15:14:04;2.45;;;0.10;;
73699;SDS011;62005;50.082;8.988;2023-07-20T15:16:30;0.40;;;0.00;;
73699;SDS011;62005;50.082;8.988;2023-07-20T15:18:55;1.35;;;0.10;;
73699;SDS011;62005;50.082;8.988;2023-07-20T15:21:20;0.30;;;0.00;;
73699;SDS011;62005;50.082;8.988;2023-07-20T15:23:47;2.58;;;0.10;;
73699;SDS011;62005;50.082;8.988;2023-07-20T15:26:13;0.70;;;0.10;;
73699;SDS011;62005;50.082;8.988;2023-07-20T15:28:39;2.95;;;1.27;;
73699;SDS011;62005;50.082;8.988;2023-07-20T15:31:06;1.90;;;0.43;;
73699;SDS011;62005;50.082;8.988;2023-07-20T15:33:31;0.47;;;0.08;;